Time;durP1;ratioP1;P1;durP2;ratioP2;P2;SDS_P1;SDS_P2;PMS_P1;PMS_P2;Temp;Humidity;BMP_temperature;BMP_pressure;BME280_temperature;BME280_humidity;BME280_pressure;Samples;Min_cycle;Max_cycle;Signal;HPM_P1;HPM_P2
2023/09/18 00:00:21;;;;;;;15.23;8.45;;;;;;;8.00;72.19;97279.03;6194664;28;20073;-69
2023/09/18 00:03:27;;;;;;;16.10;8.75;;;;;;;8.03;72.14;97300.69;6193825;28;20185;-69
2023/09/18 00:06:33;;;;;;;16.95;9.38;;;;;;;8.01;72.25;97299.94;6196483;28;20054;-69
2023/09/18 00:09:37;;;;;;;11.13;7.65;;;;;;;8.00;72.37;97295.59;6199243;28;20058;-69
2023/09/18 00:12:45;;;;;;;12.48;7.75;;;;;;;7.99;72.27;97300.94;6199272;28;20046;-69
2023/09/18 00:15:51;;;;;;;12.52;7.22;;;;;;;7.96;72.36;97296.69;6199054;28;20069;-69
2023/09/18 00:18:55;;;;;;;10.13;6.72;;;;;;;7.96;72.52;97294.06;6198714;28;20053;-69
2023/09/18 00:22:01;;;;;;;10.98;6.90;;;;;;;7.93;72.77;97294.22;6198830;28;20038;-69
2023/09/18 00:25:07;;;;;;;10.85;6.70;;;;;;;7.93;73.17;97291.59;6198869;28;20145;-70
2023/09/18 00:28:09;;;;;;;10.52;7.05;;;;;;;7.94;72.97;97301.16;6198815;28;20088;-70
2023/09/18 00:31:10;;;;;;;11.85;6.18;;;;;;;7.93;72.87;97299.44;6196148;28;20050;-70
2023/09/18 00:34:12;;;;;;;11.45;7.00;;;;;;;7.91;72.84;97308.31;6197935;28;20051;-70
2023/09/18 00:37:18;;;;;;;15.23;7.18;;;;;;;7.86;72.94;97303.28;6198700;28;20533;-70
2023/09/18 00:40:22;;;;;;;11.68;6.65;;;;;;;7.82;72.97;97297.34;6198713;28;20132;-70
2023/09/18 00:43:29;;;;;;;14.32;7.38;;;;;;;7.79;73.37;97291.41;6198412;28;20528;-69
2023/09/18 00:46:35;;;;;;;10.85;6.80;;;;;;;7.81;73.65;97300.00;6198513;28;20049;-70
2023/09/18 00:49:40;;;;;;;10.35;6.57;;;;;;;7.81;73.71;97310.50;6197963;28;20513;-69
2023/09/18 00:52:44;;;;;;;13.93;8.30;;;;;;;7.79;73.90;97307.13;6197831;28;20046;-70
2023/09/18 00:55:50;;;;;;;13.98;7.72;;;;;;;7.78;73.91;97300.16;6198331;28;20042;-70
2023/09/18 00:58:52;;;;;;;10.73;6.82;;;;;;;7.76;74.23;97307.25;6197486;28;20133;-70
2023/09/18 01:02:00;;;;;;;11.15;7.03;;;;;;;7.77;74.13;97298.47;6196930;28;20057;-70
2023/09/18 01:05:03;;;;;;;12.13;7.32;;;;;;;7.77;74.46;97306.34;6180241;28;20217;-70
2023/09/18 01:08:05;;;;;;;14.05;7.68;;;;;;;7.77;74.98;97298.47;6197852;28;20054;-70
2023/09/18 01:11:19;;;;;;;13.30;7.55;;;;;;;7.69;75.46;97296.19;6196484;28;20139;-69
2023/09/18 01:14:33;;;;;;;11.05;7.20;;;;;;;7.76;75.39;97292.38;6197910;28;20038;-70
2023/09/18 01:17:40;;;;;;;10.00;7.05;;;;;;;7.72;75.50;97292.59;6196247;28;20078;-69
2023/09/18 01:20:49;;;;;;;10.50;7.75;;;;;;;7.78;75.21;97294.91;6197416;28;20042;-71
2023/09/18 01:23:53;;;;;;;15.70;8.07;;;;;;;7.73;75.30;97292.53;6197107;28;20565;-71
2023/09/18 01:26:57;;;;;;;10.88;7.25;;;;;;;7.70;75.77;97308.41;6197191;28;20425;-71
2023/09/18 01:30:01;;;;;;;11.98;7.30;;;;;;;7.71;75.70;97309.25;6197084;28;20049;-70
2023/09/18 01:33:04;;;;;;;11.02;7.35;;;;;;;7.65;75.76;97290.25;6195966;28;20054;-70
2023/09/18 01:36:10;;;;;;;11.87;7.40;;;;;;;7.69;75.55;97295.34;6196510;28;20050;-69
2023/09/18 01:39:16;;;;;;;10.88;7.85;;;;;;;7.69;75.62;97305.84;6197052;28;20951;-69
2023/09/18 01:42:19;;;;;;;12.98;8.02;;;;;;;7.71;75.79;97304.00;6196780;28;20052;-69
2023/09/18 01:45:26;;;;;;;14.73;8.20;;;;;;;7.59;75.41;97280.06;6197012;28;20070;-71
2023/09/18 01:48:27;;;;;;;11.88;7.90;;;;;;;7.72;75.42;97305.69;6196870;28;20409;-69
2023/09/18 01:51:32;;;;;;;11.57;6.85;;;;;;;7.72;75.60;97303.06;6197747;28;20050;-69
2023/09/18 01:54:38;;;;;;;10.88;7.15;;;;;;;7.70;75.49;97297.91;6197126;28;20497;-69
2023/09/18 01:57:42;;;;;;;14.93;7.57;;;;;;;7.75;75.54;97302.94;6196982;28;20058;-69
2023/09/18 02:00:48;;;;;;;10.48;6.43;;;;;;;7.69;75.04;97297.97;6199188;28;20140;-69
2023/09/18 02:03:55;;;;;;;15.30;7.53;;;;;;;7.79;75.12;97304.50;6197008;28;20071;-69
2023/09/18 02:06:59;;;;;;;11.93;6.60;;;;;;;7.82;74.92;97309.59;6197071;28;20051;-69
2023/09/18 02:10:02;;;;;;;12.15;7.05;;;;;;;7.81;74.54;97294.78;6197992;28;20482;-69
2023/09/18 02:13:05;;;;;;;13.70;6.90;;;;;;;7.86;73.95;97303.28;6197422;28;20137;-69
2023/09/18 02:16:09;;;;;;;12.60;7.32;;;;;;;7.92;74.13;97318.69;6196819;28;20046;-69
2023/09/18 02:19:15;;;;;;;11.18;8.10;;;;;;;7.93;73.98;97304.69;6195702;28;20058;-70
2023/09/18 02:22:22;;;;;;;18.50;9.50;;;;;;;7.97;73.58;97311.47;6199735;28;20038;-70
2023/09/18 02:25:29;;;;;;;13.55;7.38;;;;;;;8.07;73.40;97322.38;6199425;28;20041;-69
2023/09/18 02:28:32;;;;;;;11.02;6.78;;;;;;;8.05;73.09;97314.59;6195354;28;20046;-69
2023/09/18 02:31:34;;;;;;;18.35;8.15;;;;;;;8.19;73.06;97321.78;6196367;28;20050;-69
2023/09/18 02:34:35;;;;;;;16.40;8.45;;;;;;;8.27;72.47;97321.44;6196610;28;20057;-70
2023/09/18 02:37:37;;;;;;;11.55;7.82;;;;;;;8.34;72.05;97325.44;6197044;28;20533;-69
2023/09/18 02:40:41;;;;;;;;;;;;;;;8.36;72.43;97323.59;6196318;28;20042;-68
2023/09/18 02:43:45;;;;;;;11.43;7.15;;;;;;;8.44;71.79;97326.72;6195907;28;19929;-68
2023/09/18 02:46:49;;;;;;;18.02;8.70;;;;;;;8.52;71.73;97323.72;6195896;28;20038;-69
2023/09/18 02:49:53;;;;;;;16.70;8.25;;;;;;;8.58;71.46;97327.81;6195121;28;20442;-69
2023/09/18 02:52:56;;;;;;;17.83;8.45;;;;;;;8.68;71.38;97329.91;6194408;28;20045;-69
2023/09/18 02:55:59;;;;;;;12.20;7.32;;;;;;;8.73;71.40;97327.91;6194938;28;20481;-69
2023/09/18 02:59:02;;;;;;;19.42;8.23;;;;;;;8.85;71.40;97330.84;6194250;28;20541;-69
2023/09/18 03:02:03;;;;;;;15.23;8.43;;;;;;;8.93;70.94;97334.75;6194943;28;20137;-71
2023/09/18 03:05:06;;;;;;;14.80;8.10;;;;;;;9.06;70.89;97328.88;6195208;28;20054;-70
2023/09/18 03:08:08;;;;;;;24.05;10.73;;;;;;;9.12;70.75;97324.19;6195023;28;20521;-68
2023/09/18 03:11:16;;;;;;;15.32;8.85;;;;;;;9.29;70.76;97336.44;6194228;28;20046;-69
2023/09/18 03:14:20;;;;;;;17.25;7.95;;;;;;;9.39;70.53;97332.38;6194832;28;20046;-68
2023/09/18 03:17:23;;;;;;;;;;;;;;;9.50;70.70;97333.59;6194476;28;20050;-68
2023/09/18 03:20:26;;;;;;;20.73;8.40;;;;;;;9.65;70.31;97332.75;6195317;28;19922;-70
2023/09/18 03:23:32;;;;;;;24.23;12.93;;;;;;;9.80;70.13;97337.22;6195523;28;20042;-68
2023/09/18 03:26:36;;;;;;;18.17;10.50;;;;;;;9.90;70.32;97327.88;6193939;28;20446;-69
2023/09/18 03:29:42;;;;;;;21.27;9.73;;;;;;;10.06;70.29;97327.03;6194921;28;20058;-68
2023/09/18 03:32:48;;;;;;;17.90;9.35;;;;;;;10.19;70.37;97327.19;6195325;28;20050;-69
2023/09/18 03:35:54;;;;;;;21.38;8.80;;;;;;;10.27;70.29;97320.59;6194741;28;20440;-68
2023/09/18 03:38:58;;;;;;;14.80;8.20;;;;;;;10.42;70.35;97323.31;6195356;28;20123;-68
2023/09/18 03:42:02;;;;;;;20.40;9.18;;;;;;;10.54;70.42;97325.25;6197063;28;20046;-68
2023/09/18 03:45:08;;;;;;;17.13;8.48;;;;;;;10.68;70.67;97325.28;6199479;28;20038;-68
2023/09/18 03:48:12;;;;;;;17.63;8.32;;;;;;;10.83;70.43;97327.97;6199700;28;20038;-70
2023/09/18 03:51:15;;;;;;;21.33;8.77;;;;;;;10.96;70.63;97323.69;6199565;28;20419;-69
2023/09/18 03:54:17;;;;;;;19.02;9.85;;;;;;;11.09;70.58;97331.69;6199154;28;20437;-70
2023/09/18 03:57:19;;;;;;;18.98;8.63;;;;;;;11.23;70.74;97327.28;6199528;28;20418;-69
2023/09/18 04:00:23;;;;;;;16.13;9.95;;;;;;;11.41;70.57;97340.31;6199214;28;20073;-70
2023/09/18 04:03:27;;;;;;;21.98;10.38;;;;;;;11.56;70.69;97336.72;6198542;28;20038;-70
2023/09/18 04:06:40;;;;;;;21.55;10.60;;;;;;;11.68;70.64;97332.47;6198860;28;20042;-70
2023/09/18 04:09:47;;;;;;;35.25;16.52;;;;;;;11.84;70.31;97343.75;6199264;28;20136;-70
2023/09/18 04:12:50;;;;;;;24.70;11.30;;;;;;;11.97;70.04;97330.66;6197216;28;20053;-70
2023/09/18 04:15:56;;;;;;;25.25;11.52;;;;;;;12.11;69.78;97330.66;6198692;28;20541;-69
2023/09/18 04:18:57;;;;;;;23.52;12.98;;;;;;;12.23;69.63;97329.03;6197975;28;20038;-70
2023/09/18 04:22:03;;;;;;;29.25;13.65;;;;;;;12.37;69.16;97333.44;6199101;28;20042;-70
2023/09/18 04:25:09;;;;;;;33.78;15.80;;;;;;;12.49;69.00;97332.63;6198726;28;20038;-70
2023/09/18 04:28:20;;;;;;;42.80;18.85;;;;;;;12.63;68.95;97336.16;6198609;28;20141;-69
2023/09/18 04:31:27;;;;;;;48.13;20.23;;;;;;;12.73;68.58;97321.38;6198215;28;20433;-69
2023/09/18 04:34:28;;;;;;;46.08;21.45;;;;;;;12.88;68.27;97319.50;6198200;28;20512;-69
2023/09/18 04:37:35;;;;;;;48.58;21.75;;;;;;;12.96;68.42;97322.50;6198354;28;20038;-69
2023/09/18 04:40:41;;;;;;;44.22;22.40;;;;;;;13.08;67.59;97316.41;6198509;28;20529;-69
2023/09/18 04:43:44;;;;;;;52.53;21.42;;;;;;;13.26;67.41;97324.88;6198101;28;20132;-69
2023/09/18 04:46:45;;;;;;;50.42;22.08;;;;;;;13.40;67.03;97331.88;6197626;28;20054;-69
2023/09/18 04:49:50;;;;;;;48.33;22.98;;;;;;;13.48;66.58;97318.97;6198190;28;20050;-69
2023/09/18 04:52:55;;;;;;;48.80;21.63;;;;;;;13.68;65.95;97330.81;6197809;28;20529;-69
2023/09/18 04:56:03;;;;;;;45.55;19.58;;;;;;;13.86;65.37;97334.78;6196958;28;20046;-69
2023/09/18 04:59:05;;;;;;;43.35;19.35;;;;;;;14.02;65.01;97331.06;6198134;28;20045;-69
2023/09/18 05:02:06;;;;;;;38.78;18.85;;;;;;;14.19;64.45;97329.84;6197934;28;20422;-69
2023/09/18 05:05:11;;;;;;;36.33;18.10;;;;;;;14.35;64.06;97323.34;6197426;28;20060;-69
2023/09/18 05:08:17;;;;;;;39.75;18.55;;;;;;;14.52;63.55;97321.25;6198523;28;20034;-69
2023/09/18 05:11:18;;;;;;;29.73;15.05;;;;;;;14.71;62.99;97326.06;6196485;28;20050;-69
2023/09/18 05:14:20;;;;;;;39.05;18.58;;;;;;;14.91;62.60;97327.22;6197474;28;20129;-70
2023/09/18 05:17:51;;;;;;;24.20;13.25;;;;;;;15.08;61.69;97324.13;6196017;28;20049;-70
2023/09/18 05:20:53;;;;;;;28.42;13.07;;;;;;;15.27;61.33;97327.06;6197063;28;20062;-69
2023/09/18 05:23:58;;;;;;;38.35;13.88;;;;;;;15.43;60.70;97333.88;6197306;28;20052;-69
2023/09/18 05:26:59;;;;;;;22.90;10.43;;;;;;;16.66;58.70;97324.94;6196337;28;20414;-68
2023/09/18 05:30:05;;;;;;;24.25;8.82;;;;;;;21.96;47.26;97325.53;6195088;28;20061;-68
2023/09/18 05:33:09;;;;;;;14.32;8.13;;;;;;;27.46;37.09;97334.94;6197279;28;20042;-68
2023/09/18 05:36:14;;;;;;;23.53;8.63;;;;;;;31.54;30.58;97336.75;6196088;28;20069;-69
2023/09/18 05:39:19;;;;;;;20.70;7.75;;;;;;;34.73;26.00;97334.97;6196149;28;20050;-67
2023/09/18 05:42:21;;;;;;;18.08;7.15;;;;;;;37.39;22.73;97336.25;6196657;28;20374;-69
2023/09/18 05:45:26;;;;;;;20.27;8.25;;;;;;;39.42;20.27;97339.66;6196953;28;20050;-68
2023/09/18 05:48:33;;;;;;;19.30;7.75;;;;;;;40.10;18.60;97336.59;6196749;28;20042;-68
2023/09/18 05:51:40;;;;;;;17.33;7.75;;;;;;;41.25;17.57;97330.13;6196499;28;20054;-69
2023/09/18 05:54:46;;;;;;;28.50;12.88;;;;;;;43.06;16.04;97333.63;6196793;28;20050;-68
2023/09/18 05:57:49;;;;;;;18.10;7.47;;;;;;;44.47;14.50;97333.50;6196034;28;20050;-68
2023/09/18 06:00:54;;;;;;;16.58;6.97;;;;;;;45.68;13.86;97321.97;6196541;28;20581;-68
2023/09/18 06:03:58;;;;;;;15.18;6.85;;;;;;;46.61;12.93;97337.88;6195786;28;20046;-68
2023/09/18 06:07:00;;;;;;;10.82;4.93;;;;;;;46.47;12.84;97331.59;6195826;28;20050;-68
2023/09/18 06:10:04;;;;;;;7.28;3.70;;;;;;;45.30;12.97;97333.44;6196207;28;20058;-67
2023/09/18 06:13:12;;;;;;;6.82;2.80;;;;;;;44.98;12.90;97321.34;6196271;28;20042;-68
2023/09/18 06:16:17;;;;;;;7.35;3.75;;;;;;;45.09;12.95;97326.69;6196374;28;20256;-68
2023/09/18 06:19:18;;;;;;;7.47;4.00;;;;;;;45.85;12.48;97324.88;6194223;28;20584;-67
2023/09/18 06:22:21;;;;;;;9.07;5.13;;;;;;;46.74;11.70;97325.81;6195722;28;20101;-67
2023/09/18 06:25:26;;;;;;;10.93;5.25;;;;;;;46.96;11.69;97327.66;6195535;28;20061;-67
2023/09/18 06:28:28;;;;;;;10.45;5.82;;;;;;;48.23;11.39;97313.50;6195775;28;20203;-68
2023/09/18 06:31:36;;;;;;;14.30;6.22;;;;;;;49.45;10.43;97321.97;6196211;28;20046;-68
2023/09/18 06:34:43;;;;;;;14.82;6.00;;;;;;;50.16;9.98;97317.34;6195711;28;20058;-68
2023/09/18 06:37:48;;;;;;;10.73;5.45;;;;;;;50.53;9.84;97317.41;6196107;28;20043;-67
2023/09/18 06:40:55;;;;;;;19.50;13.52;;;;;;;50.37;9.87;97308.06;6218201;28;20200;-67
2023/09/18 06:44:02;;;;;;;11.85;5.38;;;;;;;50.62;9.95;97308.88;6218588;28;20045;-68
2023/09/18 06:47:05;;;;;;;10.95;5.05;;;;;;;50.96;9.00;97313.16;6202009;28;20437;-68
2023/09/18 06:50:09;;;;;;;8.27;4.38;;;;;;;50.69;9.49;97309.16;6220192;28;20053;-68
2023/09/18 06:53:16;;;;;;;10.45;3.83;;;;;;;50.46;9.56;97305.97;6219650;28;20049;-68
2023/09/18 06:56:24;;;;;;;9.23;3.58;;;;;;;50.73;9.35;97305.28;6219538;28;20045;-68
2023/09/18 06:59:29;;;;;;;5.93;3.30;;;;;;;51.92;8.84;97297.56;6219361;28;20041;-68
2023/09/18 07:02:35;;;;;;;7.40;3.42;;;;;;;53.07;8.66;97301.25;6219358;28;20042;-68
2023/09/18 07:05:42;;;;;;;4.68;2.58;;;;;;;53.09;8.23;97304.50;6219838;28;20049;-68
2023/09/18 07:08:49;;;;;;;3.60;2.05;;;;;;;51.59;8.59;97296.66;6219717;28;20533;-68
2023/09/18 07:11:58;;;;;;;4.07;2.00;;;;;;;49.74;9.73;97288.66;6219663;28;20041;-68
2023/09/18 07:15:03;;;;;;;7.57;4.43;;;;;;;49.81;9.44;97289.75;6220719;28;20129;-67
2023/09/18 07:18:14;;;;;;;5.40;2.80;;;;;;;46.67;11.62;97275.34;6224677;28;20038;-68
2023/09/18 07:21:19;;;;;;;4.60;2.42;;;;;;;47.79;10.67;97270.13;6223673;28;20046;-68
2023/09/18 07:24:25;;;;;;;5.40;2.10;;;;;;;49.97;9.55;97278.75;6206629;28;20616;-68
2023/09/18 07:27:27;;;;;;;12.23;8.45;;;;;;;51.90;8.51;97283.91;6223753;28;20512;-68
2023/09/18 07:30:30;;;;;;;5.05;2.80;;;;;;;52.95;7.72;97272.06;6224359;28;20060;-68
2023/09/18 07:33:36;;;;;;;1.73;1.13;;;;;;;52.79;7.66;97273.28;6224062;28;20041;-68
2023/09/18 07:36:37;;;;;;;4.10;1.83;;;;;;;52.12;8.22;97273.25;6224409;28;20060;-68
2023/09/18 07:39:42;;;;;;;1.52;0.90;;;;;;;51.72;8.09;97272.19;6224044;28;20058;-68
2023/09/18 07:42:46;;;;;;;2.00;1.00;;;;;;;52.16;7.92;97274.16;6223199;28;20053;-68
2023/09/18 07:45:49;;;;;;;5.90;1.13;;;;;;;49.91;8.51;97262.47;6223264;28;20073;-68
2023/09/18 07:48:53;;;;;;;0.80;0.75;;;;;;;43.47;11.98;97228.56;6223186;28;20056;-68
2023/09/18 07:51:54;;;;;;;2.72;2.03;;;;;;;38.45;15.47;97213.66;6223685;28;20317;-69
2023/09/18 07:55:00;;;;;;;4.80;2.42;;;;;;;35.16;18.38;97207.84;6223617;28;20089;-68
2023/09/18 07:58:05;;;;;;;2.58;1.40;;;;;;;33.02;20.50;97210.41;6223835;28;20042;-68
2023/09/18 08:01:10;;;;;;;1.10;0.70;;;;;;;33.24;19.95;97202.50;6222739;28;20057;-69
2023/09/18 08:04:16;;;;;;;1.55;0.80;;;;;;;39.07;15.35;97215.47;6223563;28;20545;-69
2023/09/18 08:07:20;;;;;;;2.22;0.70;;;;;;;42.92;12.59;97221.97;6223720;28;20038;-67
2023/09/18 08:10:21;;;;;;;0.82;0.50;;;;;;;43.03;12.19;97223.44;6222907;28;20054;-69
2023/09/18 08:13:26;;;;;;;1.10;0.90;;;;;;;39.64;14.21;97216.28;6223176;28;20072;-69
2023/09/18 08:16:34;;;;;;;2.20;0.57;;;;;;;35.43;17.52;97212.63;6223355;28;20046;-69
2023/09/18 08:19:37;;;;;;;3.08;1.20;;;;;;;32.06;20.96;97195.78;6222382;28;20072;-69
2023/09/18 08:22:39;;;;;;;3.05;1.67;;;;;;;30.95;22.18;97188.50;6223152;28;20046;-69
2023/09/18 08:25:43;;;;;;;2.63;1.00;;;;;;;35.35;18.04;97194.72;6222061;28;20050;-69
2023/09/18 08:28:46;;;;;;;0.73;0.50;;;;;;;40.08;14.14;97212.03;6222383;28;20232;-69
2023/09/18 08:31:53;;;;;;;4.32;1.08;;;;;;;43.46;12.36;97215.03;6223519;28;20045;-67
2023/09/18 08:34:58;;;;;;;6.03;3.50;;;;;;;46.08;10.70;97224.72;6222734;28;20509;-68
2023/09/18 08:38:03;;;;;;;1.45;0.70;;;;;;;46.64;10.03;97231.44;6223198;28;20053;-68
2023/09/18 08:41:09;;;;;;;0.75;0.45;;;;;;;46.11;10.21;97208.19;6222503;28;20517;-69
2023/09/18 08:44:13;;;;;;;1.80;0.82;;;;;;;47.49;9.62;97221.81;6222243;28;20057;-68
2023/09/18 08:47:15;;;;;;;0.98;0.68;;;;;;;47.81;9.04;97212.06;6222306;28;20042;-68
2023/09/18 08:50:18;;;;;;;2.05;0.30;;;;;;;47.40;9.02;97213.44;6222047;28;20056;-68
2023/09/18 08:53:21;;;;;;;1.67;0.40;;;;;;;46.91;9.34;97201.66;6188616;28;20057;-69
2023/09/18 08:56:23;;;;;;;14.85;11.52;;;;;;;47.66;8.70;97208.63;6221528;28;20050;-68
2023/09/18 08:59:27;;;;;;;3.45;1.10;;;;;;;48.41;8.16;97204.56;6204087;28;20465;-69
2023/09/18 09:02:28;;;;;;;1.20;0.50;;;;;;;46.33;9.37;97210.09;6222075;28;20065;-69
2023/09/18 09:05:35;;;;;;;3.78;0.38;;;;;;;41.15;12.17;97183.06;6222232;28;20444;-70
2023/09/18 09:08:41;;;;;;;0.50;0.38;;;;;;;36.71;15.19;97162.22;6221323;28;20394;-71
2023/09/18 09:11:51;;;;;;;0.70;0.40;;;;;;;34.70;17.05;97160.53;6221625;28;20046;-69
2023/09/18 09:15:04;;;;;;;1.45;0.70;;;;;;;36.34;15.99;97152.78;6222119;28;20041;-69
2023/09/18 09:18:08;;;;;;;0.70;0.65;;;;;;;36.64;15.46;97146.81;6221280;28;20425;-70
2023/09/18 09:21:12;;;;;;;0.90;0.52;;;;;;;34.07;18.03;97142.41;6220737;28;20168;-68
2023/09/18 09:24:17;;;;;;;0.95;0.60;;;;;;;32.20;20.00;97137.38;6221958;28;20041;-69
2023/09/18 09:27:20;;;;;;;2.42;0.68;;;;;;;32.63;19.80;97136.34;6221687;28;20548;-69
2023/09/18 09:30:27;;;;;;;1.75;0.60;;;;;;;36.51;16.56;97152.69;6221606;28;20509;-71
2023/09/18 09:33:33;;;;;;;2.15;0.80;;;;;;;39.83;14.13;97155.09;6204191;28;20425;-68
2023/09/18 09:36:54;;;;;;;1.77;0.68;;;;;;;40.75;13.29;97160.16;6221399;28;20069;-69
2023/09/18 09:40:10;;;;;;;0.60;0.35;;;;;;;40.59;13.41;97146.44;6221432;28;20088;-68
2023/09/18 09:43:15;;;;;;;0.75;0.40;;;;;;;41.59;12.72;97160.84;6220577;28;20425;-68
2023/09/18 09:46:21;;;;;;;1.00;0.50;;;;;;;41.95;12.62;97155.75;6220351;28;20509;-68
2023/09/18 09:49:24;;;;;;;0.75;0.50;;;;;;;41.48;12.87;97153.78;6220390;28;20065;-68
2023/09/18 09:52:33;;;;;;;0.95;0.50;;;;;;;37.85;15.41;97140.81;6221297;28;20053;-68
2023/09/18 09:55:37;;;;;;;2.80;0.60;;;;;;;34.16;18.68;97133.56;6220298;28;20050;-68
2023/09/18 09:58:43;;;;;;;1.77;1.00;;;;;;;31.69;20.81;97135.91;6220413;28;20311;-69
2023/09/18 10:01:51;;;;;;;1.05;0.60;;;;;;;29.91;22.78;97125.38;6220014;28;20052;-70
2023/09/18 10:04:55;;;;;;;1.45;0.60;;;;;;;29.96;22.75;97123.69;6220928;28;20044;-69
2023/09/18 10:08:03;;;;;;;3.88;1.30;;;;;;;32.45;20.21;97122.78;6220775;28;20052;-68
2023/09/18 10:11:11;;;;;;;3.22;1.92;;;;;;;32.57;20.37;97128.28;6219918;28;20057;-69
2023/09/18 10:14:18;;;;;;;2.55;0.90;;;;;;;34.71;18.12;97120.34;6219829;28;20077;-68
2023/09/18 10:17:22;;;;;;;1.60;0.88;;;;;;;35.68;17.43;97124.59;6219821;28;20046;-68
2023/09/18 10:20:26;;;;;;;0.77;0.70;;;;;;;36.55;16.47;97125.66;6220565;28;20619;-70
2023/09/18 10:23:55;;;;;;;1.65;0.50;;;;;;;35.22;16.97;97100.16;6220563;28;20502;-68
2023/09/18 10:27:04;;;;;;;11.88;1.45;;;;;;;31.94;20.57;97121.41;6220400;28;20488;-68
2023/09/18 10:30:11;;;;;;;1.55;0.75;;;;;;;29.53;22.48;97082.75;6220274;28;20038;-69
2023/09/18 10:33:13;;;;;;;1.15;0.65;;;;;;;27.98;24.23;97096.53;6219988;28;20050;-69
2023/09/18 10:36:20;;;;;;;2.63;0.60;;;;;;;26.72;26.07;97101.22;6219919;28;20054;-69
2023/09/18 10:39:26;;;;;;;2.08;0.50;;;;;;;25.94;27.40;97095.69;6219540;28;20050;-69
2023/09/18 10:42:34;;;;;;;4.15;0.82;;;;;;;26.25;26.60;97089.16;6220137;28;20054;-69
2023/09/18 10:45:37;;;;;;;4.35;2.58;;;;;;;26.23;26.81;97091.22;6219842;28;20049;-69
2023/09/18 10:48:46;;;;;;;2.88;0.70;;;;;;;26.43;26.78;97103.03;6219770;28;20049;-68
2023/09/18 10:51:49;;;;;;;1.42;0.80;;;;;;;25.97;27.18;97087.22;6219690;28;20050;-67
2023/09/18 10:54:51;;;;;;;;;;;;;;;25.18;27.15;97083.53;6220322;28;20049;-69
2023/09/18 10:57:57;;;;;;;0.85;0.55;;;;;;;24.52;28.99;97086.88;6219508;28;20297;-69
2023/09/18 11:00:59;;;;;;;1.35;0.85;;;;;;;26.68;26.43;97086.44;6219875;28;20050;-68
2023/09/18 11:04:09;;;;;;;0.82;0.50;;;;;;;29.73;23.07;97093.56;6219871;28;20153;-68
2023/09/18 11:07:25;;;;;;;0.77;0.50;;;;;;;32.11;20.42;97102.56;6220728;28;20524;-68
2023/09/18 11:10:29;;;;;;;4.00;1.60;;;;;;;33.09;19.72;97096.63;6220613;28;20077;-68
2023/09/18 11:13:34;;;;;;;3.38;2.53;;;;;;;33.65;19.17;97093.47;6219061;28;20425;-68
2023/09/18 11:16:38;;;;;;;2.78;0.80;;;;;;;34.02;18.96;97093.13;6202305;28;20046;-69
2023/09/18 11:19:44;;;;;;;1.45;0.70;;;;;;;34.46;18.55;97094.25;6219685;28;20045;-70
2023/09/18 11:23:12;;;;;;;1.55;0.70;;;;;;;35.39;17.93;97099.31;6219107;28;20041;-68
2023/09/18 11:26:15;;;;;;;3.88;0.80;;;;;;;33.74;19.03;97086.56;6195516;28;20514;-69
2023/09/18 11:29:23;;;;;;;0.95;0.60;;;;;;;32.36;20.38;97088.78;6219348;28;20038;-69
2023/09/18 11:32:42;;;;;;;1.98;0.50;;;;;;;32.93;19.54;97080.94;6218121;28;20053;-69
2023/09/18 11:35:52;;;;;;;1.58;0.65;;;;;;;31.75;20.94;97077.84;6219175;28;20054;-69
2023/09/18 11:39:02;;;;;;;1.10;0.70;;;;;;;30.58;21.66;97068.81;6219419;28;20498;-70
2023/09/18 11:42:28;;;;;;;0.82;0.60;;;;;;;31.28;21.15;97074.00;6219239;28;20048;-69
2023/09/18 11:45:34;;;;;;;1.52;0.60;;;;;;;32.45;20.27;97068.31;6218195;28;20141;-69
2023/09/18 11:48:36;;;;;;;0.70;0.43;;;;;;;32.76;19.87;97069.09;6201655;28;20073;-68
2023/09/18 11:51:38;;;;;;;1.00;0.50;;;;;;;32.53;19.68;97065.28;6219251;28;20038;-71
2023/09/18 11:54:42;;;;;;;2.00;0.73;;;;;;;32.78;19.58;97072.41;6219289;28;20049;-68
2023/09/18 11:57:49;;;;;;;1.98;0.90;;;;;;;32.83;19.81;97064.34;6219044;28;20038;-69
2023/09/18 12:01:12;;;;;;;2.30;1.23;;;;;;;34.06;18.75;97065.13;6219330;28;20045;-69
2023/09/18 12:04:16;;;;;;;1.48;0.82;;;;;;;34.32;18.51;97055.47;6223639;28;20452;-69
2023/09/18 12:07:21;;;;;;;1.67;0.85;;;;;;;33.93;18.75;97068.09;6223249;28;20033;-69
2023/09/18 12:10:29;;;;;;;9.77;6.65;;;;;;;32.98;19.67;97056.53;6223260;28;20046;-69
2023/09/18 12:13:31;;;;;;;3.53;2.20;;;;;;;31.43;20.70;97050.03;6223077;28;20072;-69
2023/09/18 12:16:39;;;;;;;3.60;1.47;;;;;;;30.26;22.45;97044.41;6222350;28;20421;-69
2023/09/18 12:20:04;;;;;;;3.15;2.13;;;;;;;29.98;22.66;97037.50;6222911;28;20046;-69
2023/09/18 12:23:09;;;;;;;1.75;1.02;;;;;;;30.07;22.72;97034.53;6222043;28;20050;-68
2023/09/18 12:26:15;;;;;;;2.05;1.08;;;;;;;29.89;22.78;97037.94;6222936;28;20461;-70
2023/09/18 12:29:22;;;;;;;1.90;0.80;;;;;;;29.61;23.00;97032.84;6222275;28;20493;-69
2023/09/18 12:32:24;;;;;;;4.03;0.90;;;;;;;29.04;23.35;97033.47;6222146;28;20150;-69
2023/09/18 12:35:29;;;;;;;2.47;1.02;;;;;;;28.56;23.70;97033.78;6222042;28;20518;-70
2023/09/18 12:38:37;;;;;;;1.38;0.75;;;;;;;27.99;23.84;97027.03;6222025;28;20049;-69
2023/09/18 12:41:44;;;;;;;1.75;0.98;;;;;;;27.29;24.55;97032.66;6222509;28;20041;-69
2023/09/18 12:44:52;;;;;;;2.05;0.80;;;;;;;26.48;25.88;97031.47;6222711;28;20524;-70
2023/09/18 12:47:57;;;;;;;2.60;1.13;;;;;;;25.15;27.30;97022.81;6222167;28;20042;-70
2023/09/18 12:51:03;;;;;;;1.20;1.02;;;;;;;23.98;28.72;97015.22;6221836;28;20046;-70
2023/09/18 12:54:11;;;;;;;0.73;0.70;;;;;;;23.19;30.04;97019.88;6221458;28;20065;-69
2023/09/18 12:57:18;;;;;;;5.25;2.90;;;;;;;22.75;30.91;97038.28;6222195;28;20045;-70
2023/09/18 13:00:22;;;;;;;2.72;1.33;;;;;;;23.08;30.81;97033.69;6221931;28;20048;-69
2023/09/18 13:03:27;;;;;;;2.45;0.90;;;;;;;23.17;30.57;97038.00;6221990;28;20517;-69
2023/09/18 13:06:28;;;;;;;1.23;0.70;;;;;;;23.29;31.24;97038.44;6220979;28;20046;-69
2023/09/18 13:09:37;;;;;;;4.82;3.05;;;;;;;23.03;32.83;97036.06;6222036;28;20553;-70
2023/09/18 13:12:50;;;;;;;1.70;1.08;;;;;;;22.79;33.91;97045.00;6204422;28;20049;-68
2023/09/18 13:16:00;;;;;;;1.27;0.90;;;;;;;22.35;35.00;97048.09;6221514;28;20050;-69
2023/09/18 13:19:07;;;;;;;1.65;0.77;;;;;;;21.66;36.44;97042.19;6222103;28;20053;-69
2023/09/18 13:22:24;;;;;;;0.88;0.70;;;;;;;21.26;36.96;97035.69;6221804;28;20042;-70
2023/09/18 13:25:34;;;;;;;2.20;0.77;;;;;;;20.88;38.17;97043.22;6221125;28;20089;-70
2023/09/18 13:28:42;;;;;;;1.13;0.75;;;;;;;20.66;38.85;97047.28;6221647;28;20045;-69
2023/09/18 13:31:44;;;;;;;1.45;0.73;;;;;;;20.16;39.97;97046.09;6220723;28;20079;-69
2023/09/18 13:34:48;;;;;;;2.83;0.80;;;;;;;19.87;40.73;97050.81;6221393;28;20077;-70
2023/09/18 13:37:49;;;;;;;1.70;1.00;;;;;;;19.61;41.88;97059.56;6219863;28;20057;-69
2023/09/18 13:40:50;;;;;;;2.55;1.00;;;;;;;19.28;42.81;97056.56;6220576;28;20046;-69
2023/09/18 13:43:57;;;;;;;2.50;1.10;;;;;;;18.73;43.63;97053.81;6221302;28;20417;-69
2023/09/18 13:47:00;;;;;;;1.20;0.85;;;;;;;18.58;44.37;97052.63;6220602;28;20050;-69
2023/09/18 13:50:04;;;;;;;2.03;1.15;;;;;;;18.32;45.06;97066.56;6220498;28;20406;-69
2023/09/18 13:53:10;;;;;;;4.53;1.15;;;;;;;18.05;46.19;97053.13;6220642;28;20061;-69
2023/09/18 13:56:14;;;;;;;1.05;0.73;;;;;;;17.74;46.86;97062.06;6221057;28;20421;-69
2023/09/18 13:59:16;;;;;;;1.00;0.90;;;;;;;17.68;46.98;97061.81;6221098;28;20156;-69
2023/09/18 14:02:20;;;;;;;0.70;0.70;;;;;;;17.42;48.06;97062.31;6220554;28;20045;-69
2023/09/18 14:05:28;;;;;;;1.52;0.88;;;;;;;17.16;48.49;97066.47;6221021;28;20046;-68
2023/09/18 14:08:32;;;;;;;3.50;1.35;;;;;;;17.04;48.91;97066.59;6220826;28;20042;-69
2023/09/18 14:11:37;;;;;;;1.70;1.05;;;;;;;16.93;49.38;97065.81;6220447;28;20042;-69
2023/09/18 14:14:40;;;;;;;1.88;0.75;;;;;;;16.68;49.85;97040.53;6220409;28;20533;-69
2023/09/18 14:17:46;;;;;;;2.03;1.02;;;;;;;16.70;50.42;97071.31;6220130;28;20049;-70
2023/09/18 14:20:53;;;;;;;1.40;1.13;;;;;;;16.70;50.87;97071.31;6220433;28;20045;-70
2023/09/18 14:23:55;;;;;;;1.83;1.10;;;;;;;16.56;51.18;97069.84;6219871;28;20124;-70
2023/09/18 14:26:59;;;;;;;2.92;1.13;;;;;;;16.45;52.21;97075.22;6218967;28;20046;-70
2023/09/18 14:30:06;;;;;;;2.50;1.23;;;;;;;16.41;52.82;97072.97;6219909;28;20053;-68